sensor_id;sensor_type;location;lat;lon;timestamp;P1;durP1;ratioP1;P2;durP2;ratioP2
67548;SDS011;54382;53.524;49.326;2022-09-12T00:01:18;4.05;;;2.85;;
67548;SDS011;54382;53.524;49.326;2022-09-12T00:03:55;8.60;;;3.10;;
67548;SDS011;54382;53.524;49.326;2022-09-12T00:06:29;5.60;;;3.20;;
67548;SDS011;54382;53.524;49.326;2022-09-12T00:09:00;5.45;;;2.97;;
67548;SDS011;54382;53.524;49.326;2022-09-12T00:11:30;5.70;;;3.53;;
67548;SDS011;54382;53.524;49.326;2022-09-12T00:14:00;7.05;;;3.22;;
67548;SDS011;54382;53.524;49.326;2022-09-12T00:16:29;12.18;;;3.50;;
67548;SDS011;54382;53.524;49.326;2022-09-12T00:18:57;8.32;;;3.60;;
67548;SDS011;54382;53.524;49.326;2022-09-12T00:21:24;6.20;;;3.12;;
67548;SDS011;54382;53.524;49.326;2022-09-12T00:23:52;5.37;;;3.10;;
67548;SDS011;54382;53.524;49.326;2022-09-12T00:26:19;5.62;;;3.10;;
67548;SDS011;54382;53.524;49.326;2022-09-12T00:28:46;5.10;;;3.08;;
67548;SDS011;54382;53.524;49.326;2022-09-12T00:31:15;10.13;;;3.20;;
67548;SDS011;54382;53.524;49.326;2022-09-12T00:33:44;8.00;;;3.28;;
67548;SDS011;54382;53.524;49.326;2022-09-12T00:36:12;5.18;;;3.17;;
67548;SDS011;54382;53.524;49.326;2022-09-12T00:38:42;6.68;;;3.45;;
67548;SDS011;54382;53.524;49.326;2022-09-12T00:41:17;10.38;;;3.80;;
67548;SDS011;54382;53.524;49.326;2022-09-12T00:43:46;6.95;;;3.78;;
67548;SDS011;54382;53.524;49.326;2022-09-12T00:46:22;8.73;;;3.47;;
67548;SDS011;54382;53.524;49.326;2022-09-12T00:51:54;8.52;;;3.70;;
67548;SDS011;54382;53.524;49.326;2022-09-12T00:54:36;8.02;;;3.55;;
67548;SDS011;54382;53.524;49.326;2022-09-12T00:57:08;4.53;;;3.05;;
67548;SDS011;54382;53.524;49.326;2022-09-12T00:59:39;5.22;;;3.35;;
67548;SDS011;54382;53.524;49.326;2022-09-12T01:02:11;10.30;;;3.17;;
67548;SDS011;54382;53.524;49.326;2022-09-12T01:04:38;6.93;;;3.20;;
67548;SDS011;54382;53.524;49.326;2022-09-12T01:07:07;6.80;;;3.20;;
67548;SDS011;54382;53.524;49.326;2022-09-12T01:09:33;15.48;;;3.42;;
67548;SDS011;54382;53.524;49.326;2022-09-12T01:12:02;10.60;;;3.78;;
67548;SDS011;54382;53.524;49.326;2022-09-12T01:14:30;4.65;;;3.22;;
67548;SDS011;54382;53.524;49.326;2022-09-12T01:16:57;6.70;;;3.47;;
67548;SDS011;54382;53.524;49.326;2022-09-12T01:31:50;9.30;;;3.20;;
67548;SDS011;54382;53.524;49.326;2022-09-12T01:37:26;10.38;;;3.37;;
67548;SDS011;54382;53.524;49.326;2022-09-12T01:42:39;7.90;;;3.40;;
67548;SDS011;54382;53.524;49.326;2022-09-12T01:45:26;7.15;;;3.03;;
67548;SDS011;54382;53.524;49.326;2022-09-12T01:53:45;10.57;;;4.20;;
67548;SDS011;54382;53.524;49.326;2022-09-12T01:56:26;9.82;;;3.58;;
67548;SDS011;54382;53.524;49.326;2022-09-12T01:59:04;6.45;;;3.80;;
67548;SDS011;54382;53.524;49.326;2022-09-12T02:01:57;10.48;;;4.20;;
67548;SDS011;54382;53.524;49.326;2022-09-12T02:04:38;11.25;;;5.47;;
67548;SDS011;54382;53.524;49.326;2022-09-12T02:08:00;6.87;;;3.85;;
67548;SDS011;54382;53.524;49.326;2022-09-12T02:10:09;7.85;;;3.97;;
67548;SDS011;54382;53.524;49.326;2022-09-12T02:12:48;8.23;;;3.40;;
67548;SDS011;54382;53.524;49.326;2022-09-12T02:15:51;5.82;;;3.12;;
67548;SDS011;54382;53.524;49.326;2022-09-12T02:18:22;6.53;;;3.30;;
67548;SDS011;54382;53.524;49.326;2022-09-12T02:20:58;6.40;;;3.35;;
67548;SDS011;54382;53.524;49.326;2022-09-12T02:23:27;8.55;;;3.53;;
67548;SDS011;54382;53.524;49.326;2022-09-12T02:25:55;6.75;;;3.37;;
67548;SDS011;54382;53.524;49.326;2022-09-12T02:28:29;9.25;;;4.05;;
67548;SDS011;54382;53.524;49.326;2022-09-12T02:33:51;7.30;;;3.87;;
67548;SDS011;54382;53.524;49.326;2022-09-12T02:39:38;11.32;;;4.78;;
67548;SDS011;54382;53.524;49.326;2022-09-12T02:42:05;8.10;;;4.10;;
67548;SDS011;54382;53.524;49.326;2022-09-12T02:44:32;19.92;;;4.43;;
67548;SDS011;54382;53.524;49.326;2022-09-12T02:47:05;7.15;;;3.97;;
67548;SDS011;54382;53.524;49.326;2022-09-12T02:49:41;13.57;;;4.68;;
67548;SDS011;54382;53.524;49.326;2022-09-12T02:52:08;12.75;;;4.28;;
67548;SDS011;54382;53.524;49.326;2022-09-12T02:54:35;11.50;;;4.25;;
67548;SDS011;54382;53.524;49.326;2022-09-12T02:57:02;11.35;;;4.30;;
67548;SDS011;54382;53.524;49.326;2022-09-12T02:59:44;11.12;;;4.07;;
67548;SDS011;54382;53.524;49.326;2022-09-12T03:02:24;9.35;;;4.20;;
67548;SDS011;54382;53.524;49.326;2022-09-12T03:19:22;8.75;;;3.90;;
67548;SDS011;54382;53.524;49.326;2022-09-12T03:22:23;12.85;;;5.07;;
67548;SDS011;54382;53.524;49.326;2022-09-12T03:30:15;13.77;;;4.25;;
67548;SDS011;54382;53.524;49.326;2022-09-12T03:32:43;12.50;;;4.25;;
67548;SDS011;54382;53.524;49.326;2022-09-12T03:35:14;19.52;;;4.45;;
67548;SDS011;54382;53.524;49.326;2022-09-12T03:37:45;22.13;;;5.32;;
67548;SDS011;54382;53.524;49.326;2022-09-12T03:40:14;22.50;;;5.40;;
67548;SDS011;54382;53.524;49.326;2022-09-12T03:42:41;11.43;;;4.00;;
67548;SDS011;54382;53.524;49.326;2022-09-12T03:45:09;11.73;;;4.20;;
67548;SDS011;54382;53.524;49.326;2022-09-12T03:47:36;11.20;;;4.28;;
67548;SDS011;54382;53.524;49.326;2022-09-12T03:50:03;7.32;;;3.58;;
67548;SDS011;54382;53.524;49.326;2022-09-12T03:52:31;13.77;;;4.50;;
67548;SDS011;54382;53.524;49.326;2022-09-12T03:54:57;10.07;;;4.20;;
67548;SDS011;54382;53.524;49.326;2022-09-12T03:57:24;14.05;;;4.28;;
67548;SDS011;54382;53.524;49.326;2022-09-12T03:59:51;12.27;;;4.30;;
67548;SDS011;54382;53.524;49.326;2022-09-12T04:02:17;19.75;;;4.75;;
67548;SDS011;54382;53.524;49.326;2022-09-12T04:04:44;14.40;;;4.45;;
67548;SDS011;54382;53.524;49.326;2022-09-12T04:07:13;11.75;;;4.37;;
67548;SDS011;54382;53.524;49.326;2022-09-12T04:09:41;19.27;;;4.65;;
67548;SDS011;54382;53.524;49.326;2022-09-12T04:12:08;10.80;;;4.47;;
67548;SDS011;54382;53.524;49.326;2022-09-12T04:14:35;15.05;;;4.50;;
67548;SDS011;54382;53.524;49.326;2022-09-12T04:17:02;8.23;;;4.40;;
67548;SDS011;54382;53.524;49.326;2022-09-12T04:19:29;8.65;;;4.45;;
67548;SDS011;54382;53.524;49.326;2022-09-12T04:21:56;7.00;;;4.22;;
67548;SDS011;54382;53.524;49.326;2022-09-12T04:24:22;9.02;;;4.22;;
67548;SDS011;54382;53.524;49.326;2022-09-12T04:26:49;12.80;;;4.32;;
67548;SDS011;54382;53.524;49.326;2022-09-12T04:29:15;15.65;;;4.43;;
67548;SDS011;54382;53.524;49.326;2022-09-12T04:31:42;10.50;;;4.82;;
67548;SDS011;54382;53.524;49.326;2022-09-12T04:34:09;16.25;;;5.95;;
67548;SDS011;54382;53.524;49.326;2022-09-12T04:36:36;17.90;;;4.40;;
67548;SDS011;54382;53.524;49.326;2022-09-12T04:39:03;11.07;;;4.25;;
67548;SDS011;54382;53.524;49.326;2022-09-12T04:41:35;11.55;;;4.55;;
67548;SDS011;54382;53.524;49.326;2022-09-12T04:44:08;15.70;;;4.40;;
67548;SDS011;54382;53.524;49.326;2022-09-12T04:46:37;12.45;;;4.03;;
67548;SDS011;54382;53.524;49.326;2022-09-12T04:49:08;13.43;;;4.37;;
67548;SDS011;54382;53.524;49.326;2022-09-12T04:51:36;12.95;;;4.10;;
67548;SDS011;54382;53.524;49.326;2022-09-12T04:54:05;14.27;;;4.20;;
67548;SDS011;54382;53.524;49.326;2022-09-12T04:56:42;22.73;;;5.07;;
67548;SDS011;54382;53.524;49.326;2022-09-12T04:59:11;8.80;;;4.40;;
67548;SDS011;54382;53.524;49.326;2022-09-12T05:01:40;11.95;;;4.95;;
67548;SDS011;54382;53.524;49.326;2022-09-12T05:04:08;21.27;;;6.78;;
67548;SDS011;54382;53.524;49.326;2022-09-12T05:06:37;20.00;;;6.82;;
67548;SDS011;54382;53.524;49.326;2022-09-12T05:09:05;28.48;;;7.15;;
67548;SDS011;54382;53.524;49.326;2022-09-12T05:11:36;16.23;;;6.55;;
67548;SDS011;54382;53.524;49.326;2022-09-12T05:14:05;17.27;;;7.18;;
67548;SDS011;54382;53.524;49.326;2022-09-12T05:16:32;8.82;;;5.80;;
67548;SDS011;54382;53.524;49.326;2022-09-12T05:18:59;13.80;;;6.07;;
67548;SDS011;54382;53.524;49.326;2022-09-12T05:21:25;14.90;;;6.35;;
67548;SDS011;54382;53.524;49.326;2022-09-12T05:23:53;15.10;;;5.22;;
67548;SDS011;54382;53.524;49.326;2022-09-12T05:26:22;13.57;;;4.30;;
67548;SDS011;54382;53.524;49.326;2022-09-12T05:28:50;14.55;;;5.15;;
67548;SDS011;54382;53.524;49.326;2022-09-12T05:31:22;12.60;;;4.82;;
67548;SDS011;54382;53.524;49.326;2022-09-12T05:33:52;11.85;;;4.40;;
67548;SDS011;54382;53.524;49.326;2022-09-12T05:36:21;5.95;;;3.00;;
67548;SDS011;54382;53.524;49.326;2022-09-12T05:38:50;10.23;;;3.70;;
67548;SDS011;54382;53.524;49.326;2022-09-12T05:41:17;11.52;;;4.18;;
67548;SDS011;54382;53.524;49.326;2022-09-12T05:43:49;17.90;;;4.40;;
67548;SDS011;54382;53.524;49.326;2022-09-12T05:46:22;8.32;;;3.70;;
67548;SDS011;54382;53.524;49.326;2022-09-12T05:48:52;10.70;;;3.47;;
67548;SDS011;54382;53.524;49.326;2022-09-12T05:51:20;11.48;;;3.83;;
67548;SDS011;54382;53.524;49.326;2022-09-12T05:53:55;10.10;;;4.37;;
67548;SDS011;54382;53.524;49.326;2022-09-12T05:56:28;10.07;;;4.00;;
67548;SDS011;54382;53.524;49.326;2022-09-12T05:59:01;13.02;;;3.83;;
67548;SDS011;54382;53.524;49.326;2022-09-12T06:01:30;7.45;;;3.42;;
67548;SDS011;54382;53.524;49.326;2022-09-12T06:04:00;10.30;;;3.28;;
67548;SDS011;54382;53.524;49.326;2022-09-12T06:06:30;6.95;;;2.97;;
67548;SDS011;54382;53.524;49.326;2022-09-12T06:09:00;7.00;;;3.12;;
67548;SDS011;54382;53.524;49.326;2022-09-12T06:11:30;10.65;;;4.12;;
67548;SDS011;54382;53.524;49.326;2022-09-12T06:13:59;14.73;;;3.67;;
67548;SDS011;54382;53.524;49.326;2022-09-12T06:16:27;5.00;;;3.00;;
67548;SDS011;54382;53.524;49.326;2022-09-12T06:18:57;7.95;;;3.10;;
67548;SDS011;54382;53.524;49.326;2022-09-12T06:21:26;11.90;;;3.47;;
67548;SDS011;54382;53.524;49.326;2022-09-12T06:23:55;13.20;;;4.80;;
67548;SDS011;54382;53.524;49.326;2022-09-12T06:26:25;14.60;;;4.85;;
67548;SDS011;54382;53.524;49.326;2022-09-12T06:28:54;16.50;;;6.20;;
67548;SDS011;54382;53.524;49.326;2022-09-12T06:31:26;17.83;;;7.00;;
67548;SDS011;54382;53.524;49.326;2022-09-12T06:33:57;21.12;;;7.50;;
67548;SDS011;54382;53.524;49.326;2022-09-12T06:36:28;19.25;;;7.78;;
67548;SDS011;54382;53.524;49.326;2022-09-12T06:39:04;19.80;;;7.72;;
67548;SDS011;54382;53.524;49.326;2022-09-12T06:41:35;17.30;;;7.95;;
67548;SDS011;54382;53.524;49.326;2022-09-12T06:44:02;19.45;;;8.05;;
67548;SDS011;54382;53.524;49.326;2022-09-12T06:46:29;25.30;;;5.75;;
67548;SDS011;54382;53.524;49.326;2022-09-12T06:48:57;7.93;;;4.25;;
67548;SDS011;54382;53.524;49.326;2022-09-12T06:51:25;17.70;;;4.47;;
67548;SDS011;54382;53.524;49.326;2022-09-12T06:53:53;11.52;;;5.65;;
67548;SDS011;54382;53.524;49.326;2022-09-12T06:56:22;16.23;;;6.37;;
67548;SDS011;54382;53.524;49.326;2022-09-12T06:58:51;7.90;;;4.90;;
67548;SDS011;54382;53.524;49.326;2022-09-12T07:03:58;11.57;;;5.45;;
67548;SDS011;54382;53.524;49.326;2022-09-12T07:06:27;17.80;;;5.90;;
67548;SDS011;54382;53.524;49.326;2022-09-12T07:09:05;12.18;;;4.50;;
67548;SDS011;54382;53.524;49.326;2022-09-12T07:11:36;7.12;;;4.05;;
67548;SDS011;54382;53.524;49.326;2022-09-12T07:14:05;6.40;;;3.83;;
67548;SDS011;54382;53.524;49.326;2022-09-12T07:16:34;8.10;;;3.50;;
67548;SDS011;54382;53.524;49.326;2022-09-12T07:19:01;6.32;;;3.20;;
67548;SDS011;54382;53.524;49.326;2022-09-12T07:21:30;7.10;;;3.45;;
67548;SDS011;54382;53.524;49.326;2022-09-12T07:23:57;7.12;;;3.78;;
67548;SDS011;54382;53.524;49.326;2022-09-12T07:26:27;9.50;;;3.70;;
67548;SDS011;54382;53.524;49.326;2022-09-12T07:28:55;9.18;;;4.32;;
67548;SDS011;54382;53.524;49.326;2022-09-12T07:31:24;10.25;;;4.53;;
67548;SDS011;54382;53.524;49.326;2022-09-12T07:33:52;7.37;;;3.70;;
67548;SDS011;54382;53.524;49.326;2022-09-12T07:36:20;12.95;;;3.97;;
67548;SDS011;54382;53.524;49.326;2022-09-12T07:38:52;11.05;;;5.07;;
67548;SDS011;54382;53.524;49.326;2022-09-12T07:41:27;12.55;;;4.60;;
67548;SDS011;54382;53.524;49.326;2022-09-12T07:43:57;10.13;;;3.75;;
67548;SDS011;54382;53.524;49.326;2022-09-12T07:46:26;12.82;;;4.00;;
67548;SDS011;54382;53.524;49.326;2022-09-12T07:48:58;7.50;;;2.45;;
67548;SDS011;54382;53.524;49.326;2022-09-12T07:51:27;8.93;;;3.53;;
67548;SDS011;54382;53.524;49.326;2022-09-12T07:53:55;4.78;;;3.08;;
67548;SDS011;54382;53.524;49.326;2022-09-12T07:56:22;15.65;;;4.28;;
67548;SDS011;54382;53.524;49.326;2022-09-12T07:58:49;8.32;;;3.22;;
67548;SDS011;54382;53.524;49.326;2022-09-12T08:01:19;8.88;;;3.53;;
67548;SDS011;54382;53.524;49.326;2022-09-12T08:03:52;8.40;;;3.70;;
67548;SDS011;54382;53.524;49.326;2022-09-12T08:06:21;17.23;;;3.50;;
67548;SDS011;54382;53.524;49.326;2022-09-12T08:08:49;8.07;;;3.58;;
67548;SDS011;54382;53.524;49.326;2022-09-12T08:11:21;9.75;;;3.92;;
67548;SDS011;54382;53.524;49.326;2022-09-12T08:13:49;8.95;;;4.00;;
67548;SDS011;54382;53.524;49.326;2022-09-12T08:16:20;12.68;;;4.03;;
67548;SDS011;54382;53.524;49.326;2022-09-12T08:18:53;12.73;;;6.10;;
67548;SDS011;54382;53.524;49.326;2022-09-12T08:21:21;17.30;;;8.25;;
67548;SDS011;54382;53.524;49.326;2022-09-12T08:23:53;19.80;;;7.80;;
67548;SDS011;54382;53.524;49.326;2022-09-12T08:26:22;8.38;;;3.62;;
67548;SDS011;54382;53.524;49.326;2022-09-12T08:28:50;7.68;;;3.03;;
67548;SDS011;54382;53.524;49.326;2022-09-12T08:31:18;8.70;;;3.12;;
67548;SDS011;54382;53.524;49.326;2022-09-12T08:33:47;6.53;;;3.03;;
67548;SDS011;54382;53.524;49.326;2022-09-12T08:36:18;11.25;;;3.35;;
67548;SDS011;54382;53.524;49.326;2022-09-12T08:38:48;8.07;;;2.97;;
67548;SDS011;54382;53.524;49.326;2022-09-12T08:47:21;6.85;;;3.35;;
67548;SDS011;54382;53.524;49.326;2022-09-12T08:50:18;8.63;;;3.80;;
67548;SDS011;54382;53.524;49.326;2022-09-12T08:52:51;8.82;;;3.72;;
67548;SDS011;54382;53.524;49.326;2022-09-12T08:55:51;19.25;;;3.83;;
67548;SDS011;54382;53.524;49.326;2022-09-12T08:58:22;9.32;;;3.78;;
67548;SDS011;54382;53.524;49.326;2022-09-12T09:00:56;8.75;;;3.55;;
67548;SDS011;54382;53.524;49.326;2022-09-12T09:09:58;10.82;;;5.07;;
67548;SDS011;54382;53.524;49.326;2022-09-12T09:15:58;10.27;;;3.85;;
67548;SDS011;54382;53.524;49.326;2022-09-12T09:18:37;6.05;;;3.35;;
67548;SDS011;54382;53.524;49.326;2022-09-12T09:21:08;8.07;;;3.22;;
67548;SDS011;54382;53.524;49.326;2022-09-12T09:24:04;14.13;;;3.28;;
67548;SDS011;54382;53.524;49.326;2022-09-12T09:29:17;4.85;;;2.75;;
67548;SDS011;54382;53.524;49.326;2022-09-12T09:31:56;5.20;;;2.78;;
67548;SDS011;54382;53.524;49.326;2022-09-12T09:34:27;12.90;;;3.78;;
67548;SDS011;54382;53.524;49.326;2022-09-12T09:43:37;15.88;;;3.47;;
67548;SDS011;54382;53.524;49.326;2022-09-12T09:45:48;6.20;;;3.60;;
67548;SDS011;54382;53.524;49.326;2022-09-12T09:48:33;8.25;;;2.92;;
67548;SDS011;54382;53.524;49.326;2022-09-12T09:51:06;7.90;;;3.37;;
67548;SDS011;54382;53.524;49.326;2022-09-12T09:53:42;6.37;;;3.17;;
67548;SDS011;54382;53.524;49.326;2022-09-12T09:56:37;13.77;;;3.37;;
67548;SDS011;54382;53.524;49.326;2022-09-12T09:59:10;7.95;;;3.60;;
67548;SDS011;54382;53.524;49.326;2022-09-12T10:01:53;7.68;;;3.53;;
67548;SDS011;54382;53.524;49.326;2022-09-12T10:04:29;8.27;;;3.47;;
67548;SDS011;54382;53.524;49.326;2022-09-12T10:07:00;12.60;;;4.93;;
67548;SDS011;54382;53.524;49.326;2022-09-12T10:09:29;6.70;;;3.55;;
67548;SDS011;54382;53.524;49.326;2022-09-12T10:11:58;7.60;;;2.90;;
67548;SDS011;54382;53.524;49.326;2022-09-12T10:14:39;11.20;;;3.20;;
67548;SDS011;54382;53.524;49.326;2022-09-12T10:19:53;7.53;;;3.60;;
67548;SDS011;54382;53.524;49.326;2022-09-12T10:22:22;24.02;;;5.20;;
67548;SDS011;54382;53.524;49.326;2022-09-12T10:24:53;9.68;;;3.90;;
67548;SDS011;54382;53.524;49.326;2022-09-12T10:27:30;9.50;;;3.70;;
67548;SDS011;54382;53.524;49.326;2022-09-12T10:32:41;7.97;;;2.87;;
67548;SDS011;54382;53.524;49.326;2022-09-12T10:35:18;6.35;;;3.20;;
67548;SDS011;54382;53.524;49.326;2022-09-12T10:37:52;5.97;;;2.80;;
67548;SDS011;54382;53.524;49.326;2022-09-12T10:40:30;9.18;;;3.12;;
67548;SDS011;54382;53.524;49.326;2022-09-12T10:45:56;5.70;;;2.85;;
67548;SDS011;54382;53.524;49.326;2022-09-12T10:48:28;9.20;;;3.17;;
67548;SDS011;54382;53.524;49.326;2022-09-12T10:50:58;5.35;;;3.00;;
67548;SDS011;54382;53.524;49.326;2022-09-12T10:53:38;6.25;;;1.95;;
67548;SDS011;54382;53.524;49.326;2022-09-12T10:56:11;7.07;;;2.35;;
67548;SDS011;54382;53.524;49.326;2022-09-12T11:04:55;6.45;;;1.90;;
67548;SDS011;54382;53.524;49.326;2022-09-12T11:07:58;4.57;;;2.45;;
67548;SDS011;54382;53.524;49.326;2022-09-12T11:19:16;4.25;;;1.73;;
67548;SDS011;54382;53.524;49.326;2022-09-12T11:22:17;3.05;;;1.52;;
67548;SDS011;54382;53.524;49.326;2022-09-12T11:25:11;4.18;;;1.60;;
67548;SDS011;54382;53.524;49.326;2022-09-12T11:28:06;5.30;;;1.40;;
67548;SDS011;54382;53.524;49.326;2022-09-12T11:31:00;3.05;;;1.77;;
67548;SDS011;54382;53.524;49.326;2022-09-12T11:33:43;4.62;;;1.75;;
67548;SDS011;54382;53.524;49.326;2022-09-12T11:36:32;4.07;;;1.90;;
67548;SDS011;54382;53.524;49.326;2022-09-12T11:39:32;3.87;;;1.80;;
67548;SDS011;54382;53.524;49.326;2022-09-12T11:42:04;5.72;;;1.73;;
67548;SDS011;54382;53.524;49.326;2022-09-12T11:44:44;8.23;;;2.03;;
67548;SDS011;54382;53.524;49.326;2022-09-12T11:47:17;5.43;;;1.73;;
67548;SDS011;54382;53.524;49.326;2022-09-12T11:49:46;4.18;;;1.80;;
67548;SDS011;54382;53.524;49.326;2022-09-12T11:52:23;6.12;;;2.50;;
67548;SDS011;54382;53.524;49.326;2022-09-12T11:57:44;3.67;;;1.45;;
67548;SDS011;54382;53.524;49.326;2022-09-12T12:00:46;4.60;;;1.90;;
67548;SDS011;54382;53.524;49.326;2022-09-12T12:03:19;4.90;;;2.03;;
67548;SDS011;54382;53.524;49.326;2022-09-12T12:06:01;5.53;;;1.58;;
67548;SDS011;54382;53.524;49.326;2022-09-12T12:08:42;4.12;;;1.55;;
67548;SDS011;54382;53.524;49.326;2022-09-12T12:11:11;3.10;;;1.42;;
67548;SDS011;54382;53.524;49.326;2022-09-12T12:14:04;4.15;;;1.50;;
67548;SDS011;54382;53.524;49.326;2022-09-12T12:16:37;3.58;;;1.30;;
67548;SDS011;54382;53.524;49.326;2022-09-12T12:21:39;3.92;;;1.40;;
67548;SDS011;54382;53.524;49.326;2022-09-12T12:24:15;3.78;;;1.45;;
67548;SDS011;54382;53.524;49.326;2022-09-12T12:26:58;3.97;;;1.50;;
67548;SDS011;54382;53.524;49.326;2022-09-12T12:39:57;5.45;;;1.67;;
67548;SDS011;54382;53.524;49.326;2022-09-12T12:45:48;9.07;;;1.95;;
67548;SDS011;54382;53.524;49.326;2022-09-12T12:47:56;5.37;;;1.80;;
67548;SDS011;54382;53.524;49.326;2022-09-12T12:50:35;12.07;;;1.90;;
67548;SDS011;54382;53.524;49.326;2022-09-12T12:53:03;5.03;;;1.77;;
67548;SDS011;54382;53.524;49.326;2022-09-12T12:58:22;3.92;;;1.60;;
67548;SDS011;54382;53.524;49.326;2022-09-12T13:01:09;9.88;;;1.65;;
67548;SDS011;54382;53.524;49.326;2022-09-12T13:03:46;5.32;;;1.80;;
67548;SDS011;54382;53.524;49.326;2022-09-12T13:06:30;5.82;;;1.70;;
67548;SDS011;54382;53.524;49.326;2022-09-12T13:09:05;4.93;;;1.70;;
67548;SDS011;54382;53.524;49.326;2022-09-12T13:11:46;4.18;;;1.90;;
67548;SDS011;54382;53.524;49.326;2022-09-12T13:14:33;7.87;;;2.60;;
67548;SDS011;54382;53.524;49.326;2022-09-12T13:17:00;6.72;;;1.65;;
67548;SDS011;54382;53.524;49.326;2022-09-12T13:19:32;7.68;;;2.08;;
67548;SDS011;54382;53.524;49.326;2022-09-12T13:22:06;5.68;;;1.90;;
67548;SDS011;54382;53.524;49.326;2022-09-12T13:24:44;5.87;;;1.92;;
67548;SDS011;54382;53.524;49.326;2022-09-12T13:27:22;3.17;;;1.48;;
67548;SDS011;54382;53.524;49.326;2022-09-12T13:30:12;4.12;;;2.08;;
67548;SDS011;54382;53.524;49.326;2022-09-12T13:32:42;7.85;;;2.00;;
67548;SDS011;54382;53.524;49.326;2022-09-12T13:35:14;5.12;;;2.05;;
67548;SDS011;54382;53.524;49.326;2022-09-12T13:41:20;4.53;;;1.90;;
67548;SDS011;54382;53.524;49.326;2022-09-12T13:43:55;6.55;;;1.85;;
67548;SDS011;54382;53.524;49.326;2022-09-12T13:46:26;5.18;;;2.12;;
67548;SDS011;54382;53.524;49.326;2022-09-12T13:48:57;9.07;;;2.00;;
67548;SDS011;54382;53.524;49.326;2022-09-12T13:51:30;12.15;;;2.00;;
67548;SDS011;54382;53.524;49.326;2022-09-12T13:53:58;6.32;;;2.45;;
67548;SDS011;54382;53.524;49.326;2022-09-12T13:58:57;7.47;;;2.25;;
67548;SDS011;54382;53.524;49.326;2022-09-12T14:01:59;8.30;;;2.45;;
67548;SDS011;54382;53.524;49.326;2022-09-12T14:04:23;5.32;;;2.00;;
67548;SDS011;54382;53.524;49.326;2022-09-12T14:07:23;7.28;;;2.30;;
67548;SDS011;54382;53.524;49.326;2022-09-12T14:09:52;7.68;;;2.35;;
67548;SDS011;54382;53.524;49.326;2022-09-12T14:12:35;4.82;;;1.92;;
67548;SDS011;54382;53.524;49.326;2022-09-12T14:15:06;4.68;;;1.87;;
67548;SDS011;54382;53.524;49.326;2022-09-12T14:17:52;5.43;;;2.42;;
67548;SDS011;54382;53.524;49.326;2022-09-12T14:20:26;5.97;;;2.17;;
67548;SDS011;54382;53.524;49.326;2022-09-12T14:22:59;6.45;;;2.22;;
67548;SDS011;54382;53.524;49.326;2022-09-12T14:25:41;6.03;;;2.03;;
67548;SDS011;54382;53.524;49.326;2022-09-12T14:28:12;6.68;;;2.28;;
67548;SDS011;54382;53.524;49.326;2022-09-12T14:30:55;7.32;;;2.00;;
67548;SDS011;54382;53.524;49.326;2022-09-12T14:33:46;4.87;;;2.08;;
67548;SDS011;54382;53.524;49.326;2022-09-12T14:37:04;7.30;;;2.12;;
67548;SDS011;54382;53.524;49.326;2022-09-12T14:42:05;7.50;;;2.22;;
67548;SDS011;54382;53.524;49.326;2022-09-12T14:44:52;7.65;;;1.95;;
67548;SDS011;54382;53.524;49.326;2022-09-12T14:47:41;8.00;;;2.58;;
67548;SDS011;54382;53.524;49.326;2022-09-12T14:50:17;6.50;;;2.17;;
67548;SDS011;54382;53.524;49.326;2022-09-12T14:53:01;6.43;;;2.70;;
67548;SDS011;54382;53.524;49.326;2022-09-12T14:55:28;5.40;;;1.98;;
67548;SDS011;54382;53.524;49.326;2022-09-12T15:03:36;6.70;;;2.28;;
67548;SDS011;54382;53.524;49.326;2022-09-12T15:06:34;5.68;;;2.60;;
67548;SDS011;54382;53.524;49.326;2022-09-12T15:09:05;9.68;;;2.62;;
67548;SDS011;54382;53.524;49.326;2022-09-12T15:11:37;5.45;;;2.42;;
67548;SDS011;54382;53.524;49.326;2022-09-12T15:14:13;7.18;;;2.60;;
67548;SDS011;54382;53.524;49.326;2022-09-12T15:16:40;6.55;;;2.45;;
67548;SDS011;54382;53.524;49.326;2022-09-12T15:19:06;12.00;;;2.70;;
67548;SDS011;54382;53.524;49.326;2022-09-12T15:21:33;14.35;;;2.87;;
67548;SDS011;54382;53.524;49.326;2022-09-12T15:24:00;8.20;;;3.00;;
67548;SDS011;54382;53.524;49.326;2022-09-12T15:26:27;12.00;;;3.05;;
67548;SDS011;54382;53.524;49.326;2022-09-12T15:28:56;7.68;;;3.03;;
67548;SDS011;54382;53.524;49.326;2022-09-12T15:33:54;9.47;;;3.33;;
67548;SDS011;54382;53.524;49.326;2022-09-12T15:36:23;7.00;;;3.35;;
67548;SDS011;54382;53.524;49.326;2022-09-12T15:38:53;7.18;;;3.50;;
67548;SDS011;54382;53.524;49.326;2022-09-12T15:41:21;13.65;;;4.20;;
67548;SDS011;54382;53.524;49.326;2022-09-12T15:44:04;16.12;;;4.65;;
67548;SDS011;54382;53.524;49.326;2022-09-12T15:46:32;40.77;;;5.53;;
67548;SDS011;54382;53.524;49.326;2022-09-12T15:48:59;11.48;;;3.90;;
67548;SDS011;54382;53.524;49.326;2022-09-12T15:51:25;11.77;;;4.18;;
67548;SDS011;54382;53.524;49.326;2022-09-12T15:53:52;12.85;;;4.45;;
67548;SDS011;54382;53.524;49.326;2022-09-12T15:56:19;12.63;;;4.47;;
67548;SDS011;54382;53.524;49.326;2022-09-12T15:58:47;16.37;;;4.10;;
67548;SDS011;54382;53.524;49.326;2022-09-12T16:01:15;7.78;;;4.90;;
67548;SDS011;54382;53.524;49.326;2022-09-12T16:03:44;6.30;;;4.22;;
67548;SDS011;54382;53.524;49.326;2022-09-12T16:06:12;17.87;;;4.97;;
67548;SDS011;54382;53.524;49.326;2022-09-12T16:08:39;13.75;;;4.65;;
67548;SDS011;54382;53.524;49.326;2022-09-12T16:11:08;11.68;;;5.30;;
67548;SDS011;54382;53.524;49.326;2022-09-12T16:13:41;13.27;;;4.85;;
67548;SDS011;54382;53.524;49.326;2022-09-12T16:16:07;17.50;;;5.78;;
67548;SDS011;54382;53.524;49.326;2022-09-12T16:18:34;14.87;;;5.07;;
67548;SDS011;54382;53.524;49.326;2022-09-12T16:21:04;10.75;;;5.05;;
67548;SDS011;54382;53.524;49.326;2022-09-12T16:23:31;12.80;;;5.72;;
67548;SDS011;54382;53.524;49.326;2022-09-12T16:25:58;12.95;;;5.87;;
67548;SDS011;54382;53.524;49.326;2022-09-12T16:28:27;19.83;;;6.70;;
67548;SDS011;54382;53.524;49.326;2022-09-12T16:30:59;14.70;;;6.07;;
67548;SDS011;54382;53.524;49.326;2022-09-12T16:33:28;12.50;;;5.65;;
67548;SDS011;54382;53.524;49.326;2022-09-12T16:38:33;11.63;;;5.20;;
67548;SDS011;54382;53.524;49.326;2022-09-12T16:41:08;18.08;;;4.95;;
67548;SDS011;54382;53.524;49.326;2022-09-12T16:43:35;9.95;;;4.80;;
67548;SDS011;54382;53.524;49.326;2022-09-12T16:46:06;10.93;;;5.50;;
67548;SDS011;54382;53.524;49.326;2022-09-12T16:48:35;17.50;;;5.32;;
67548;SDS011;54382;53.524;49.326;2022-09-12T16:51:06;11.03;;;5.03;;
67548;SDS011;54382;53.524;49.326;2022-09-12T16:53:34;17.48;;;5.28;;
67548;SDS011;54382;53.524;49.326;2022-09-12T16:56:03;13.32;;;6.05;;
67548;SDS011;54382;53.524;49.326;2022-09-12T16:58:34;8.80;;;4.70;;
67548;SDS011;54382;53.524;49.326;2022-09-12T17:01:05;23.35;;;5.68;;
67548;SDS011;54382;53.524;49.326;2022-09-12T17:03:37;13.32;;;5.37;;
67548;SDS011;54382;53.524;49.326;2022-09-12T17:06:14;10.10;;;5.00;;
67548;SDS011;54382;53.524;49.326;2022-09-12T17:08:43;8.25;;;4.70;;
67548;SDS011;54382;53.524;49.326;2022-09-12T17:11:21;12.20;;;5.30;;
67548;SDS011;54382;53.524;49.326;2022-09-12T17:13:52;14.60;;;4.47;;
67548;SDS011;54382;53.524;49.326;2022-09-12T17:16:20;12.40;;;5.45;;
67548;SDS011;54382;53.524;49.326;2022-09-12T17:18:47;8.57;;;5.20;;
67548;SDS011;54382;53.524;49.326;2022-09-12T17:21:15;15.38;;;5.55;;
67548;SDS011;54382;53.524;49.326;2022-09-12T17:23:42;17.00;;;5.40;;
67548;SDS011;54382;53.524;49.326;2022-09-12T17:26:12;17.52;;;5.28;;